sensor_id;sensor_type;location;lat;lon;timestamp;P1;durP1;ratioP1;P2;durP2;ratioP2
70169;SDS011;57543;45.442;9.212;2024-03-06T00:00:13;3.50;;;1.53;;
70169;SDS011;57543;45.442;9.212;2024-03-06T00:03:19;3.47;;;1.60;;
70169;SDS011;57543;45.442;9.212;2024-03-06T00:06:23;3.00;;;1.70;;
70169;SDS011;57543;45.442;9.212;2024-03-06T00:09:27;3.15;;;1.63;;
70169;SDS011;57543;45.442;9.212;2024-03-06T00:12:31;3.25;;;1.45;;
70169;SDS011;57543;45.442;9.212;2024-03-06T00:15:34;3.43;;;1.50;;
70169;SDS011;57543;45.442;9.212;2024-03-06T00:18:37;3.33;;;1.60;;
70169;SDS011;57543;45.442;9.212;2024-03-06T00:21:40;3.88;;;1.60;;
70169;SDS011;57543;45.442;9.212;2024-03-06T00:24:44;2.88;;;1.33;;
70169;SDS011;57543;45.442;9.212;2024-03-06T00:27:53;2.95;;;1.73;;
70169;SDS011;57543;45.442;9.212;2024-03-06T00:30:57;2.83;;;1.40;;
70169;SDS011;57543;45.442;9.212;2024-03-06T00:34:00;3.08;;;1.48;;
70169;SDS011;57543;45.442;9.212;2024-03-06T00:37:04;3.88;;;1.50;;
70169;SDS011;57543;45.442;9.212;2024-03-06T00:40:07;3.05;;;1.52;;
70169;SDS011;57543;45.442;9.212;2024-03-06T00:43:11;2.95;;;1.58;;
70169;SDS011;57543;45.442;9.212;2024-03-06T00:46:15;3.17;;;1.50;;
70169;SDS011;57543;45.442;9.212;2024-03-06T00:49:19;3.47;;;1.60;;
70169;SDS011;57543;45.442;9.212;2024-03-06T00:52:25;3.10;;;1.77;;
70169;SDS011;57543;45.442;9.212;2024-03-06T00:55:28;3.47;;;1.70;;
70169;SDS011;57543;45.442;9.212;2024-03-06T00:58:32;3.55;;;1.63;;
70169;SDS011;57543;45.442;9.212;2024-03-06T01:01:36;3.67;;;1.50;;
70169;SDS011;57543;45.442;9.212;2024-03-06T01:04:40;3.03;;;1.60;;
70169;SDS011;57543;45.442;9.212;2024-03-06T01:07:43;3.72;;;1.60;;
70169;SDS011;57543;45.442;9.212;2024-03-06T01:10:47;2.70;;;1.55;;
70169;SDS011;57543;45.442;9.212;2024-03-06T01:13:51;3.55;;;1.60;;
70169;SDS011;57543;45.442;9.212;2024-03-06T01:16:55;3.07;;;1.70;;
70169;SDS011;57543;45.442;9.212;2024-03-06T01:20:08;3.33;;;1.60;;
70169;SDS011;57543;45.442;9.212;2024-03-06T01:23:12;2.85;;;1.65;;
70169;SDS011;57543;45.442;9.212;2024-03-06T01:26:16;3.55;;;1.80;;
70169;SDS011;57543;45.442;9.212;2024-03-06T01:29:19;3.03;;;1.92;;
70169;SDS011;57543;45.442;9.212;2024-03-06T01:32:23;3.10;;;1.60;;
70169;SDS011;57543;45.442;9.212;2024-03-06T01:35:26;3.35;;;1.60;;
70169;SDS011;57543;45.442;9.212;2024-03-06T01:38:30;3.22;;;1.70;;
70169;SDS011;57543;45.442;9.212;2024-03-06T01:41:33;3.40;;;1.70;;
70169;SDS011;57543;45.442;9.212;2024-03-06T01:44:37;3.08;;;1.63;;
70169;SDS011;57543;45.442;9.212;2024-03-06T01:47:41;3.73;;;1.80;;
70169;SDS011;57543;45.442;9.212;2024-03-06T01:50:46;4.45;;;1.80;;
70169;SDS011;57543;45.442;9.212;2024-03-06T01:53:50;3.40;;;1.88;;
70169;SDS011;57543;45.442;9.212;2024-03-06T01:56:54;4.40;;;1.60;;
70169;SDS011;57543;45.442;9.212;2024-03-06T01:59:58;3.42;;;1.95;;
70169;SDS011;57543;45.442;9.212;2024-03-06T02:03:02;4.80;;;1.70;;
70169;SDS011;57543;45.442;9.212;2024-03-06T02:06:06;3.78;;;1.90;;
70169;SDS011;57543;45.442;9.212;2024-03-06T02:09:11;3.60;;;1.55;;
70169;SDS011;57543;45.442;9.212;2024-03-06T02:12:16;3.47;;;1.75;;
70169;SDS011;57543;45.442;9.212;2024-03-06T02:15:23;5.00;;;2.13;;
70169;SDS011;57543;45.442;9.212;2024-03-06T02:18:27;3.50;;;2.10;;
70169;SDS011;57543;45.442;9.212;2024-03-06T02:21:30;4.47;;;2.10;;
70169;SDS011;57543;45.442;9.212;2024-03-06T02:24:35;3.83;;;2.00;;
70169;SDS011;57543;45.442;9.212;2024-03-06T02:27:39;4.28;;;1.80;;
70169;SDS011;57543;45.442;9.212;2024-03-06T02:30:43;6.75;;;2.00;;
70169;SDS011;57543;45.442;9.212;2024-03-06T02:33:51;5.30;;;1.63;;
70169;SDS011;57543;45.442;9.212;2024-03-06T02:36:55;3.63;;;2.00;;
70169;SDS011;57543;45.442;9.212;2024-03-06T02:39:59;3.92;;;2.00;;
70169;SDS011;57543;45.442;9.212;2024-03-06T02:43:03;3.75;;;2.03;;
70169;SDS011;57543;45.442;9.212;2024-03-06T02:46:08;3.50;;;2.00;;
70169;SDS011;57543;45.442;9.212;2024-03-06T02:49:12;4.30;;;1.97;;
70169;SDS011;57543;45.442;9.212;2024-03-06T02:52:15;4.00;;;1.70;;
70169;SDS011;57543;45.442;9.212;2024-03-06T02:55:19;3.25;;;1.90;;
70169;SDS011;57543;45.442;9.212;2024-03-06T02:58:22;3.15;;;1.88;;
70169;SDS011;57543;45.442;9.212;2024-03-06T03:01:27;3.33;;;2.00;;
70169;SDS011;57543;45.442;9.212;2024-03-06T03:04:31;5.13;;;2.23;;
70169;SDS011;57543;45.442;9.212;2024-03-06T03:07:35;3.75;;;2.15;;
70169;SDS011;57543;45.442;9.212;2024-03-06T03:10:38;3.83;;;2.10;;
70169;SDS011;57543;45.442;9.212;2024-03-06T03:13:42;5.10;;;2.08;;
70169;SDS011;57543;45.442;9.212;2024-03-06T03:16:46;5.05;;;2.20;;
70169;SDS011;57543;45.442;9.212;2024-03-06T03:19:50;3.90;;;2.10;;
70169;SDS011;57543;45.442;9.212;2024-03-06T03:22:53;3.40;;;2.00;;
70169;SDS011;57543;45.442;9.212;2024-03-06T03:25:56;5.18;;;2.33;;
70169;SDS011;57543;45.442;9.212;2024-03-06T03:29:00;4.38;;;2.30;;
70169;SDS011;57543;45.442;9.212;2024-03-06T03:32:04;3.60;;;2.22;;
70169;SDS011;57543;45.442;9.212;2024-03-06T03:35:09;3.80;;;2.20;;
70169;SDS011;57543;45.442;9.212;2024-03-06T03:38:13;4.03;;;2.40;;
70169;SDS011;57543;45.442;9.212;2024-03-06T03:41:17;3.92;;;2.38;;
70169;SDS011;57543;45.442;9.212;2024-03-06T03:44:21;4.40;;;1.95;;
70169;SDS011;57543;45.442;9.212;2024-03-06T03:47:27;4.72;;;3.10;;
70169;SDS011;57543;45.442;9.212;2024-03-06T03:50:33;4.93;;;2.60;;
70169;SDS011;57543;45.442;9.212;2024-03-06T03:53:37;4.80;;;3.17;;
70169;SDS011;57543;45.442;9.212;2024-03-06T03:56:40;6.03;;;3.95;;
70169;SDS011;57543;45.442;9.212;2024-03-06T03:59:44;5.93;;;3.90;;
70169;SDS011;57543;45.442;9.212;2024-03-06T04:02:47;5.90;;;3.80;;
70169;SDS011;57543;45.442;9.212;2024-03-06T04:05:51;4.87;;;3.47;;
70169;SDS011;57543;45.442;9.212;2024-03-06T04:08:55;6.75;;;4.22;;
70169;SDS011;57543;45.442;9.212;2024-03-06T04:11:59;7.50;;;4.55;;
70169;SDS011;57543;45.442;9.212;2024-03-06T04:15:02;7.00;;;4.28;;
70169;SDS011;57543;45.442;9.212;2024-03-06T04:18:07;5.85;;;3.90;;
70169;SDS011;57543;45.442;9.212;2024-03-06T04:21:10;5.93;;;3.50;;
70169;SDS011;57543;45.442;9.212;2024-03-06T04:24:14;5.43;;;3.47;;
70169;SDS011;57543;45.442;9.212;2024-03-06T04:27:20;4.63;;;2.85;;
70169;SDS011;57543;45.442;9.212;2024-03-06T04:30:24;5.03;;;2.67;;
70169;SDS011;57543;45.442;9.212;2024-03-06T04:33:28;4.85;;;3.28;;
70169;SDS011;57543;45.442;9.212;2024-03-06T04:36:32;4.73;;;2.90;;
70169;SDS011;57543;45.442;9.212;2024-03-06T04:39:35;5.30;;;3.42;;
70169;SDS011;57543;45.442;9.212;2024-03-06T04:42:39;5.20;;;3.50;;
70169;SDS011;57543;45.442;9.212;2024-03-06T04:45:43;6.20;;;2.92;;
70169;SDS011;57543;45.442;9.212;2024-03-06T04:48:46;6.15;;;3.50;;
70169;SDS011;57543;45.442;9.212;2024-03-06T04:51:50;6.10;;;3.97;;
70169;SDS011;57543;45.442;9.212;2024-03-06T04:54:56;6.18;;;3.85;;
70169;SDS011;57543;45.442;9.212;2024-03-06T04:58:04;5.55;;;3.75;;
70169;SDS011;57543;45.442;9.212;2024-03-06T05:01:07;6.07;;;3.38;;
70169;SDS011;57543;45.442;9.212;2024-03-06T05:04:11;6.75;;;4.47;;
70169;SDS011;57543;45.442;9.212;2024-03-06T05:07:14;7.00;;;4.27;;
70169;SDS011;57543;45.442;9.212;2024-03-06T05:10:18;6.18;;;4.03;;
70169;SDS011;57543;45.442;9.212;2024-03-06T05:13:22;7.30;;;5.10;;
70169;SDS011;57543;45.442;9.212;2024-03-06T05:16:29;7.47;;;4.45;;
70169;SDS011;57543;45.442;9.212;2024-03-06T05:19:32;7.03;;;4.55;;
70169;SDS011;57543;45.442;9.212;2024-03-06T05:22:37;8.03;;;4.90;;
70169;SDS011;57543;45.442;9.212;2024-03-06T05:25:41;8.73;;;5.00;;
70169;SDS011;57543;45.442;9.212;2024-03-06T05:28:44;7.35;;;4.90;;
70169;SDS011;57543;45.442;9.212;2024-03-06T05:31:48;8.25;;;5.32;;
70169;SDS011;57543;45.442;9.212;2024-03-06T05:34:52;8.13;;;4.93;;
70169;SDS011;57543;45.442;9.212;2024-03-06T05:37:57;8.47;;;5.10;;
70169;SDS011;57543;45.442;9.212;2024-03-06T05:41:00;8.43;;;5.30;;
70169;SDS011;57543;45.442;9.212;2024-03-06T05:44:05;7.40;;;4.70;;
70169;SDS011;57543;45.442;9.212;2024-03-06T05:47:11;5.82;;;3.55;;
70169;SDS011;57543;45.442;9.212;2024-03-06T05:50:15;6.10;;;3.90;;
70169;SDS011;57543;45.442;9.212;2024-03-06T05:53:22;7.43;;;4.80;;
70169;SDS011;57543;45.442;9.212;2024-03-06T05:56:26;8.85;;;5.40;;
70169;SDS011;57543;45.442;9.212;2024-03-06T05:59:30;9.00;;;5.80;;
70169;SDS011;57543;45.442;9.212;2024-03-06T06:02:36;8.63;;;5.55;;
70169;SDS011;57543;45.442;9.212;2024-03-06T06:05:42;7.97;;;4.68;;
70169;SDS011;57543;45.442;9.212;2024-03-06T06:08:46;8.90;;;5.07;;
70169;SDS011;57543;45.442;9.212;2024-03-06T06:11:49;8.95;;;5.22;;
70169;SDS011;57543;45.442;9.212;2024-03-06T06:14:53;10.15;;;5.20;;
70169;SDS011;57543;45.442;9.212;2024-03-06T06:18:00;9.38;;;5.38;;
70169;SDS011;57543;45.442;9.212;2024-03-06T06:21:03;11.93;;;5.95;;
70169;SDS011;57543;45.442;9.212;2024-03-06T06:24:10;10.63;;;6.23;;
70169;SDS011;57543;45.442;9.212;2024-03-06T06:27:14;9.57;;;5.70;;
70169;SDS011;57543;45.442;9.212;2024-03-06T06:30:17;9.23;;;5.75;;
70169;SDS011;57543;45.442;9.212;2024-03-06T06:33:21;8.48;;;5.28;;
70169;SDS011;57543;45.442;9.212;2024-03-06T06:36:25;9.20;;;5.43;;
70169;SDS011;57543;45.442;9.212;2024-03-06T06:39:31;7.63;;;4.27;;
70169;SDS011;57543;45.442;9.212;2024-03-06T06:42:37;7.22;;;4.43;;
70169;SDS011;57543;45.442;9.212;2024-03-06T06:45:41;7.82;;;4.20;;
70169;SDS011;57543;45.442;9.212;2024-03-06T06:48:45;7.28;;;4.10;;
70169;SDS011;57543;45.442;9.212;2024-03-06T06:51:48;8.27;;;4.45;;
70169;SDS011;57543;45.442;9.212;2024-03-06T06:54:52;7.43;;;3.43;;
70169;SDS011;57543;45.442;9.212;2024-03-06T06:57:55;5.78;;;3.35;;
70169;SDS011;57543;45.442;9.212;2024-03-06T07:00:59;5.05;;;3.08;;
70169;SDS011;57543;45.442;9.212;2024-03-06T07:04:03;6.63;;;2.80;;
70169;SDS011;57543;45.442;9.212;2024-03-06T07:07:07;6.75;;;2.70;;
70169;SDS011;57543;45.442;9.212;2024-03-06T07:10:13;5.60;;;2.90;;
70169;SDS011;57543;45.442;9.212;2024-03-06T07:13:22;5.40;;;2.78;;
70169;SDS011;57543;45.442;9.212;2024-03-06T07:16:26;6.50;;;2.50;;
70169;SDS011;57543;45.442;9.212;2024-03-06T07:19:29;5.22;;;2.33;;
70169;SDS011;57543;45.442;9.212;2024-03-06T07:22:32;4.88;;;2.50;;
70169;SDS011;57543;45.442;9.212;2024-03-06T07:25:37;5.63;;;2.43;;
70169;SDS011;57543;45.442;9.212;2024-03-06T07:28:40;5.30;;;2.50;;
70169;SDS011;57543;45.442;9.212;2024-03-06T07:31:44;7.57;;;2.53;;
70169;SDS011;57543;45.442;9.212;2024-03-06T07:34:48;4.10;;;2.20;;
70169;SDS011;57543;45.442;9.212;2024-03-06T07:37:51;5.53;;;2.67;;
70169;SDS011;57543;45.442;9.212;2024-03-06T07:40:55;3.80;;;2.40;;
70169;SDS011;57543;45.442;9.212;2024-03-06T07:43:59;5.30;;;2.47;;
70169;SDS011;57543;45.442;9.212;2024-03-06T07:47:03;6.18;;;2.13;;
70169;SDS011;57543;45.442;9.212;2024-03-06T07:50:07;5.10;;;2.08;;
70169;SDS011;57543;45.442;9.212;2024-03-06T07:53:13;4.13;;;2.50;;
70169;SDS011;57543;45.442;9.212;2024-03-06T07:56:17;4.67;;;1.90;;
70169;SDS011;57543;45.442;9.212;2024-03-06T07:59:21;4.20;;;2.20;;
70169;SDS011;57543;45.442;9.212;2024-03-06T08:02:25;6.43;;;2.22;;
70169;SDS011;57543;45.442;9.212;2024-03-06T08:05:31;4.20;;;2.13;;
70169;SDS011;57543;45.442;9.212;2024-03-06T08:08:39;5.20;;;2.50;;
70169;SDS011;57543;45.442;9.212;2024-03-06T08:11:46;9.73;;;4.00;;
70169;SDS011;57543;45.442;9.212;2024-03-06T08:14:52;7.53;;;3.92;;
70169;SDS011;57543;45.442;9.212;2024-03-06T08:17:57;8.20;;;5.55;;
70169;SDS011;57543;45.442;9.212;2024-03-06T08:21:00;7.95;;;4.90;;
70169;SDS011;57543;45.442;9.212;2024-03-06T08:24:04;8.27;;;4.75;;
70169;SDS011;57543;45.442;9.212;2024-03-06T08:27:09;8.53;;;4.97;;
70169;SDS011;57543;45.442;9.212;2024-03-06T08:30:12;8.70;;;5.10;;
70169;SDS011;57543;45.442;9.212;2024-03-06T08:33:16;9.38;;;5.40;;
70169;SDS011;57543;45.442;9.212;2024-03-06T08:36:28;9.73;;;5.95;;
70169;SDS011;57543;45.442;9.212;2024-03-06T08:39:34;9.15;;;5.68;;
70169;SDS011;57543;45.442;9.212;2024-03-06T08:42:37;11.63;;;6.70;;
70169;SDS011;57543;45.442;9.212;2024-03-06T08:45:42;10.75;;;6.20;;
70169;SDS011;57543;45.442;9.212;2024-03-06T08:48:45;10.20;;;6.80;;
70169;SDS011;57543;45.442;9.212;2024-03-06T08:51:49;8.20;;;5.55;;
70169;SDS011;57543;45.442;9.212;2024-03-06T08:54:58;9.10;;;5.97;;
70169;SDS011;57543;45.442;9.212;2024-03-06T08:58:04;7.77;;;5.47;;
70169;SDS011;57543;45.442;9.212;2024-03-06T09:01:07;11.70;;;6.25;;
70169;SDS011;57543;45.442;9.212;2024-03-06T09:04:11;12.90;;;5.93;;
70169;SDS011;57543;45.442;9.212;2024-03-06T09:07:14;10.68;;;6.15;;
70169;SDS011;57543;45.442;9.212;2024-03-06T09:10:18;9.75;;;6.00;;
70169;SDS011;57543;45.442;9.212;2024-03-06T09:13:25;8.97;;;6.10;;
70169;SDS011;57543;45.442;9.212;2024-03-06T09:16:29;8.02;;;5.28;;
70169;SDS011;57543;45.442;9.212;2024-03-06T09:19:33;10.82;;;6.10;;
70169;SDS011;57543;45.442;9.212;2024-03-06T09:22:39;9.50;;;4.80;;
70169;SDS011;57543;45.442;9.212;2024-03-06T09:25:43;7.68;;;4.72;;
70169;SDS011;57543;45.442;9.212;2024-03-06T09:28:47;9.20;;;4.70;;
70169;SDS011;57543;45.442;9.212;2024-03-06T09:31:52;9.25;;;5.07;;
70169;SDS011;57543;45.442;9.212;2024-03-06T09:34:56;9.52;;;5.38;;
70169;SDS011;57543;45.442;9.212;2024-03-06T09:38:03;7.85;;;4.88;;
70169;SDS011;57543;45.442;9.212;2024-03-06T09:41:07;9.02;;;4.80;;
70169;SDS011;57543;45.442;9.212;2024-03-06T09:44:12;7.90;;;3.60;;
70169;SDS011;57543;45.442;9.212;2024-03-06T09:47:18;6.80;;;3.47;;
70169;SDS011;57543;45.442;9.212;2024-03-06T09:50:26;6.15;;;3.40;;
70169;SDS011;57543;45.442;9.212;2024-03-06T09:53:32;7.95;;;3.80;;
70169;SDS011;57543;45.442;9.212;2024-03-06T09:56:36;6.45;;;3.38;;
70169;SDS011;57543;45.442;9.212;2024-03-06T09:59:43;6.57;;;2.83;;
70169;SDS011;57543;45.442;9.212;2024-03-06T10:06:12;6.15;;;3.33;;
70169;SDS011;57543;45.442;9.212;2024-03-06T10:09:17;8.85;;;3.78;;
70169;SDS011;57543;45.442;9.212;2024-03-06T10:12:22;7.22;;;4.00;;
70169;SDS011;57543;45.442;9.212;2024-03-06T10:15:26;6.77;;;3.63;;
70169;SDS011;57543;45.442;9.212;2024-03-06T10:18:33;9.27;;;5.30;;
70169;SDS011;57543;45.442;9.212;2024-03-06T10:21:37;11.05;;;5.80;;
70169;SDS011;57543;45.442;9.212;2024-03-06T10:24:40;12.48;;;6.03;;
70169;SDS011;57543;45.442;9.212;2024-03-06T10:27:44;12.60;;;5.97;;
70169;SDS011;57543;45.442;9.212;2024-03-06T10:30:48;11.37;;;5.27;;
70169;SDS011;57543;45.442;9.212;2024-03-06T10:33:52;10.57;;;5.53;;
70169;SDS011;57543;45.442;9.212;2024-03-06T10:36:57;11.32;;;5.90;;
70169;SDS011;57543;45.442;9.212;2024-03-06T10:40:05;10.15;;;6.30;;
70169;SDS011;57543;45.442;9.212;2024-03-06T10:43:18;11.23;;;6.35;;
70169;SDS011;57543;45.442;9.212;2024-03-06T10:46:26;12.00;;;6.37;;
70169;SDS011;57543;45.442;9.212;2024-03-06T10:49:31;11.10;;;6.70;;
70169;SDS011;57543;45.442;9.212;2024-03-06T10:52:38;10.05;;;6.15;;
70169;SDS011;57543;45.442;9.212;2024-03-06T10:55:44;10.48;;;6.93;;
70169;SDS011;57543;45.442;9.212;2024-03-06T10:59:00;10.55;;;6.82;;
70169;SDS011;57543;45.442;9.212;2024-03-06T11:02:06;10.73;;;6.03;;
70169;SDS011;57543;45.442;9.212;2024-03-06T11:05:12;11.30;;;6.85;;
70169;SDS011;57543;45.442;9.212;2024-03-06T11:08:15;13.02;;;7.18;;
70169;SDS011;57543;45.442;9.212;2024-03-06T11:11:20;14.00;;;7.25;;
70169;SDS011;57543;45.442;9.212;2024-03-06T11:14:28;13.02;;;7.38;;
70169;SDS011;57543;45.442;9.212;2024-03-06T11:17:39;12.57;;;7.57;;
70169;SDS011;57543;45.442;9.212;2024-03-06T11:20:47;13.40;;;7.35;;
70169;SDS011;57543;45.442;9.212;2024-03-06T11:27:27;12.93;;;6.50;;
70169;SDS011;57543;45.442;9.212;2024-03-06T11:30:34;12.55;;;7.25;;
70169;SDS011;57543;45.442;9.212;2024-03-06T11:33:58;10.00;;;6.67;;
70169;SDS011;57543;45.442;9.212;2024-03-06T11:37:07;12.38;;;7.00;;
70169;SDS011;57543;45.442;9.212;2024-03-06T11:40:14;12.30;;;6.20;;
70169;SDS011;57543;45.442;9.212;2024-03-06T11:43:24;11.57;;;6.35;;
70169;SDS011;57543;45.442;9.212;2024-03-06T11:49:49;10.77;;;6.10;;
70169;SDS011;57543;45.442;9.212;2024-03-06T11:52:54;11.07;;;5.32;;
70169;SDS011;57543;45.442;9.212;2024-03-06T11:55:59;12.68;;;5.97;;
70169;SDS011;57543;45.442;9.212;2024-03-06T11:59:05;10.02;;;5.10;;
70169;SDS011;57543;45.442;9.212;2024-03-06T12:02:12;9.98;;;4.70;;
70169;SDS011;57543;45.442;9.212;2024-03-06T12:05:16;8.90;;;5.00;;
70169;SDS011;57543;45.442;9.212;2024-03-06T12:08:20;9.68;;;5.15;;
70169;SDS011;57543;45.442;9.212;2024-03-06T12:11:24;7.70;;;4.70;;
70169;SDS011;57543;45.442;9.212;2024-03-06T12:14:28;10.07;;;4.40;;
70169;SDS011;57543;45.442;9.212;2024-03-06T12:17:44;8.32;;;4.03;;
70169;SDS011;57543;45.442;9.212;2024-03-06T12:20:57;7.33;;;3.57;;
70169;SDS011;57543;45.442;9.212;2024-03-06T12:24:07;5.55;;;3.08;;
70169;SDS011;57543;45.442;9.212;2024-03-06T12:27:12;6.82;;;3.10;;
70169;SDS011;57543;45.442;9.212;2024-03-06T12:30:17;7.13;;;2.97;;
70169;SDS011;57543;45.442;9.212;2024-03-06T12:33:21;5.82;;;2.92;;
70169;SDS011;57543;45.442;9.212;2024-03-06T12:36:25;7.70;;;2.00;;
70169;SDS011;57543;45.442;9.212;2024-03-06T12:39:31;3.20;;;1.50;;
70169;SDS011;57543;45.442;9.212;2024-03-06T12:42:36;3.42;;;1.30;;
70169;SDS011;57543;45.442;9.212;2024-03-06T12:45:40;4.40;;;1.40;;
70169;SDS011;57543;45.442;9.212;2024-03-06T12:49:03;3.00;;;1.20;;
70169;SDS011;57543;45.442;9.212;2024-03-06T12:52:09;5.67;;;2.50;;
70169;SDS011;57543;45.442;9.212;2024-03-06T12:55:16;4.70;;;2.38;;
70169;SDS011;57543;45.442;9.212;2024-03-06T12:58:20;8.43;;;2.70;;
70169;SDS011;57543;45.442;9.212;2024-03-06T13:01:24;5.07;;;2.40;;
70169;SDS011;57543;45.442;9.212;2024-03-06T13:04:28;4.32;;;2.10;;
70169;SDS011;57543;45.442;9.212;2024-03-06T13:07:32;4.37;;;1.90;;
70169;SDS011;57543;45.442;9.212;2024-03-06T13:10:35;5.13;;;1.80;;
70169;SDS011;57543;45.442;9.212;2024-03-06T13:13:41;6.35;;;2.03;;
70169;SDS011;57543;45.442;9.212;2024-03-06T13:16:45;4.30;;;1.70;;
70169;SDS011;57543;45.442;9.212;2024-03-06T13:19:51;3.90;;;1.60;;
70169;SDS011;57543;45.442;9.212;2024-03-06T13:22:54;3.43;;;1.53;;
70169;SDS011;57543;45.442;9.212;2024-03-06T13:26:01;4.03;;;1.50;;
70169;SDS011;57543;45.442;9.212;2024-03-06T13:29:09;4.25;;;1.90;;
70169;SDS011;57543;45.442;9.212;2024-03-06T13:32:13;3.30;;;1.35;;
70169;SDS011;57543;45.442;9.212;2024-03-06T13:35:20;3.28;;;1.50;;
70169;SDS011;57543;45.442;9.212;2024-03-06T13:38:23;3.57;;;1.40;;
70169;SDS011;57543;45.442;9.212;2024-03-06T13:41:26;3.40;;;1.20;;
70169;SDS011;57543;45.442;9.212;2024-03-06T13:44:29;2.78;;;1.42;;
70169;SDS011;57543;45.442;9.212;2024-03-06T13:47:33;2.78;;;1.20;;
70169;SDS011;57543;45.442;9.212;2024-03-06T13:50:37;2.97;;;1.20;;
70169;SDS011;57543;45.442;9.212;2024-03-06T13:53:41;2.90;;;1.30;;
70169;SDS011;57543;45.442;9.212;2024-03-06T13:56:45;3.60;;;1.38;;
70169;SDS011;57543;45.442;9.212;2024-03-06T13:59:49;2.65;;;1.30;;
70169;SDS011;57543;45.442;9.212;2024-03-06T14:02:55;5.20;;;1.15;;
70169;SDS011;57543;45.442;9.212;2024-03-06T14:06:05;4.15;;;1.20;;
70169;SDS011;57543;45.442;9.212;2024-03-06T14:09:11;2.93;;;1.10;;
70169;SDS011;57543;45.442;9.212;2024-03-06T14:12:17;3.40;;;1.20;;
70169;SDS011;57543;45.442;9.212;2024-03-06T14:15:24;5.57;;;1.65;;
70169;SDS011;57543;45.442;9.212;2024-03-06T14:18:29;3.15;;;1.60;;
70169;SDS011;57543;45.442;9.212;2024-03-06T14:21:33;3.13;;;1.40;;
70169;SDS011;57543;45.442;9.212;2024-03-06T14:24:38;3.13;;;1.23;;
70169;SDS011;57543;45.442;9.212;2024-03-06T14:27:42;4.35;;;1.33;;
70169;SDS011;57543;45.442;9.212;2024-03-06T14:30:46;2.67;;;1.27;;
70169;SDS011;57543;45.442;9.212;2024-03-06T14:33:53;3.78;;;1.70;;
70169;SDS011;57543;45.442;9.212;2024-03-06T14:36:57;5.28;;;1.63;;
70169;SDS011;57543;45.442;9.212;2024-03-06T14:40:00;6.30;;;1.60;;
70169;SDS011;57543;45.442;9.212;2024-03-06T14:43:04;3.95;;;1.80;;
70169;SDS011;57543;45.442;9.212;2024-03-06T14:46:14;4.95;;;1.77;;
70169;SDS011;57543;45.442;9.212;2024-03-06T14:49:21;4.40;;;1.50;;
70169;SDS011;57543;45.442;9.212;2024-03-06T14:52:24;3.97;;;1.70;;
70169;SDS011;57543;45.442;9.212;2024-03-06T14:55:32;3.60;;;1.67;;
70169;SDS011;57543;45.442;9.212;2024-03-06T14:58:38;5.32;;;1.20;;
70169;SDS011;57543;45.442;9.212;2024-03-06T15:01:42;3.75;;;1.63;;
70169;SDS011;57543;45.442;9.212;2024-03-06T15:04:47;3.45;;;1.50;;
70169;SDS011;57543;45.442;9.212;2024-03-06T15:07:51;3.60;;;1.67;;
70169;SDS011;57543;45.442;9.212;2024-03-06T15:10:55;4.73;;;1.70;;
70169;SDS011;57543;45.442;9.212;2024-03-06T15:14:00;4.22;;;1.77;;
70169;SDS011;57543;45.442;9.212;2024-03-06T15:17:03;4.88;;;1.70;;
70169;SDS011;57543;45.442;9.212;2024-03-06T15:20:08;5.13;;;1.65;;
70169;SDS011;57543;45.442;9.212;2024-03-06T15:23:12;7.25;;;1.35;;
70169;SDS011;57543;45.442;9.212;2024-03-06T15:26:18;4.70;;;1.63;;
70169;SDS011;57543;45.442;9.212;2024-03-06T15:29:22;6.38;;;1.70;;
70169;SDS011;57543;45.442;9.212;2024-03-06T15:32:25;4.18;;;1.70;;
70169;SDS011;57543;45.442;9.212;2024-03-06T15:35:39;4.68;;;1.88;;
70169;SDS011;57543;45.442;9.212;2024-03-06T15:38:45;4.45;;;1.95;;
70169;SDS011;57543;45.442;9.212;2024-03-06T15:41:49;4.90;;;1.80;;
70169;SDS011;57543;45.442;9.212;2024-03-06T15:44:53;4.57;;;2.53;;
70169;SDS011;57543;45.442;9.212;2024-03-06T15:47:58;7.10;;;1.90;;
70169;SDS011;57543;45.442;9.212;2024-03-06T15:51:02;6.95;;;2.28;;
70169;SDS011;57543;45.442;9.212;2024-03-06T15:54:06;4.80;;;1.98;;
70169;SDS011;57543;45.442;9.212;2024-03-06T15:57:11;4.20;;;2.00;;
70169;SDS011;57543;45.442;9.212;2024-03-06T16:00:23;5.22;;;1.75;;
70169;SDS011;57543;45.442;9.212;2024-03-06T16:03:27;6.63;;;2.10;;
70169;SDS011;57543;45.442;9.212;2024-03-06T16:06:31;4.82;;;1.83;;
70169;SDS011;57543;45.442;9.212;2024-03-06T16:09:36;3.88;;;1.70;;
70169;SDS011;57543;45.442;9.212;2024-03-06T16:12:39;5.37;;;2.10;;
70169;SDS011;57543;45.442;9.212;2024-03-06T16:15:43;4.05;;;1.75;;
70169;SDS011;57543;45.442;9.212;2024-03-06T16:18:47;4.35;;;1.70;;
70169;SDS011;57543;45.442;9.212;2024-03-06T16:21:54;3.83;;;1.40;;
70169;SDS011;57543;45.442;9.212;2024-03-06T16:24:57;5.32;;;1.83;;
70169;SDS011;57543;45.442;9.212;2024-03-06T16:28:08;3.50;;;1.90;;
70169;SDS011;57543;45.442;9.212;2024-03-06T16:31:11;5.70;;;1.55;;
70169;SDS011;57543;45.442;9.212;2024-03-06T16:34:17;5.80;;;1.80;;
70169;SDS011;57543;45.442;9.212;2024-03-06T16:37:27;3.97;;;1.60;;
70169;SDS011;57543;45.442;9.212;2024-03-06T16:40:31;5.63;;;1.80;;
70169;SDS011;57543;45.442;9.212;2024-03-06T16:43:42;4.20;;;1.70;;
70169;SDS011;57543;45.442;9.212;2024-03-06T16:46:46;5.00;;;1.92;;
70169;SDS011;57543;45.442;9.212;2024-03-06T16:49:53;4.75;;;2.00;;
70169;SDS011;57543;45.442;9.212;2024-03-06T16:52:57;3.78;;;1.80;;
70169;SDS011;57543;45.442;9.212;2024-03-06T16:56:03;5.18;;;2.10;;
70169;SDS011;57543;45.442;9.212;2024-03-06T16:59:07;5.77;;;1.90;;
70169;SDS011;57543;45.442;9.212;2024-03-06T17:02:14;5.40;;;2.00;;
70169;SDS011;57543;45.442;9.212;2024-03-06T17:05:18;4.53;;;1.92;;
70169;SDS011;57543;45.442;9.212;2024-03-06T17:08:22;3.67;;;1.77;;
70169;SDS011;57543;45.442;9.212;2024-03-06T17:11:26;5.68;;;2.10;;
70169;SDS011;57543;45.442;9.212;2024-03-06T17:14:29;4.63;;;2.07;;
70169;SDS011;57543;45.442;9.212;2024-03-06T17:17:34;3.97;;;1.88;;
70169;SDS011;57543;45.442;9.212;2024-03-06T17:20:38;7.43;;;2.30;;
70169;SDS011;57543;45.442;9.212;2024-03-06T17:23:42;3.80;;;1.90;;
70169;SDS011;57543;45.442;9.212;2024-03-06T17:26:50;6.28;;;2.20;;
70169;SDS011;57543;45.442;9.212;2024-03-06T17:29:55;3.87;;;1.93;;
70169;SDS011;57543;45.442;9.212;2024-03-06T17:33:00;4.55;;;2.00;;
70169;SDS011;57543;45.442;9.212;2024-03-06T17:36:08;5.65;;;2.10;;
70169;SDS011;57543;45.442;9.212;2024-03-06T17:39:16;5.72;;;1.90;;
70169;SDS011;57543;45.442;9.212;2024-03-06T17:42:21;4.70;;;2.00;;
70169;SDS011;57543;45.442;9.212;2024-03-06T17:45:24;4.17;;;1.80;;
70169;SDS011;57543;45.442;9.212;2024-03-06T17:48:35;5.38;;;2.13;;
70169;SDS011;57543;45.442;9.212;2024-03-06T17:51:40;6.13;;;2.53;;
70169;SDS011;57543;45.442;9.212;2024-03-06T17:54:45;5.45;;;2.28;;
70169;SDS011;57543;45.442;9.212;2024-03-06T17:57:49;4.28;;;2.38;;
70169;SDS011;57543;45.442;9.212;2024-03-06T18:00:54;6.13;;;2.20;;
70169;SDS011;57543;45.442;9.212;2024-03-06T18:03:58;5.78;;;2.20;;
70169;SDS011;57543;45.442;9.212;2024-03-06T18:07:02;4.93;;;2.42;;
70169;SDS011;57543;45.442;9.212;2024-03-06T18:10:08;7.20;;;2.90;;
70169;SDS011;57543;45.442;9.212;2024-03-06T18:13:12;4.75;;;2.75;;
70169;SDS011;57543;45.442;9.212;2024-03-06T18:16:18;7.67;;;3.00;;
70169;SDS011;57543;45.442;9.212;2024-03-06T18:19:24;5.53;;;3.20;;
70169;SDS011;57543;45.442;9.212;2024-03-06T18:22:29;7.30;;;3.70;;
70169;SDS011;57543;45.442;9.212;2024-03-06T18:25:33;9.13;;;3.90;;
70169;SDS011;57543;45.442;9.212;2024-03-06T18:28:44;8.05;;;3.50;;
70169;SDS011;57543;45.442;9.212;2024-03-06T18:31:48;8.67;;;3.60;;
70169;SDS011;57543;45.442;9.212;2024-03-06T18:34:51;7.00;;;3.40;;
70169;SDS011;57543;45.442;9.212;2024-03-06T18:38:00;7.10;;;3.55;;
70169;SDS011;57543;45.442;9.212;2024-03-06T18:41:04;7.55;;;3.40;;